Аэропорт: Актау. Актау

ICAO: UATE

METAR:
2022-06-26 11:30:00
UATE 261130Z 28003MPS 240V320 CAVOK 39/10 Q1002 NOSIG RMK QFE750/1000
METAR:
2022-06-26 05:03:00
TAF UATE 260503Z 2606/2706 12005G11MPS 9999 SCT040CB TX35/2609Z TN22/2702Z BECMG 2608/2610 27005G11MPS BECMG 2611/2613 33005MPS BECMG 2614/2616 01009G15MPS PROB40 2616/2622 -TSRA